Time;durP1;ratioP1;P1;durP2;ratioP2;P2;SDS_P1;SDS_P2;PMS_P1;PMS_P2;Temp;Humidity;BMP_temperature;BMP_pressure;BME280_temperature;BME280_humidity;BME280_pressure;Samples;Min_cycle;Max_cycle;Signal;HPM_P1;HPM_P2
2024/04/16 00:02:03;;;;;;;2.43;1.40;;;13.60;85.30;;;;;;5383254;26;21091;-41
2024/04/16 00:04:29;;;;;;;3.60;1.37;;;13.60;85.30;;;;;;5274871;26;20544;-41
2024/04/16 00:06:55;;;;;;;8.60;1.23;;;13.60;85.30;;;;;;5347862;26;20476;-42
2024/04/16 00:09:21;;;;;;;2.30;1.40;;;13.60;85.30;;;;;;5333767;26;20886;-42
2024/04/16 00:11:47;;;;;;;2.80;1.43;;;13.50;85.20;;;;;;5361463;26;20471;-42
2024/04/16 00:14:27;;;;;;;2.27;1.50;;;13.50;85.10;;;;;;5339245;26;20575;-42
2024/04/16 00:16:55;;;;;;;3.33;1.17;;;13.50;85.10;;;;;;5335659;26;20513;-42
2024/04/16 00:19:27;;;;;;;1.80;1.10;;;13.50;85.10;;;;;;5314597;26;20465;-42
2024/04/16 00:21:53;;;;;;;2.20;1.07;;;13.50;85.00;;;;;;5360373;26;20507;-43
2024/04/16 00:24:19;;;;;;;3.53;1.13;;;13.50;84.90;;;;;;5339726;26;20457;-42
2024/04/16 00:26:45;;;;;;;2.40;1.37;;;13.50;84.80;;;;;;5316242;26;20835;-42
2024/04/16 00:29:11;;;;;;;2.10;1.10;;;13.50;84.90;;;;;;5340699;26;20988;-42
2024/04/16 00:31:37;;;;;;;2.87;1.40;;;13.40;84.60;;;;;;5341901;26;20660;-42
2024/04/16 00:34:06;;;;;;;3.00;1.20;;;13.40;84.50;;;;;;5360152;26;20504;-42
2024/04/16 00:36:34;;;;;;;1.47;0.83;;;13.50;84.50;;;;;;5320325;26;20449;-42
2024/04/16 00:39:00;;;;;;;2.30;1.30;;;13.40;84.40;;;;;;5304985;26;20465;-42
2024/04/16 00:41:26;;;;;;;5.53;1.00;;;13.40;84.40;;;;;;5361237;26;21462;-42
2024/04/16 00:43:52;;;;;;;3.83;1.27;;;13.40;84.40;;;;;;5373824;26;20464;-42
2024/04/16 00:46:18;;;;;;;4.43;1.23;;;13.30;84.10;;;;;;5331013;26;20470;-42
2024/04/16 00:48:44;;;;;;;2.37;1.03;;;13.30;84.00;;;;;;5376542;26;20454;-42
2024/04/16 00:51:11;;;;;;;3.10;1.00;;;13.30;84.10;;;;;;5338356;26;20519;-42
2024/04/16 00:53:41;;;;;;;2.40;1.13;;;13.30;84.00;;;;;;5329438;26;20503;-42
2024/04/16 00:56:08;;;;;;;2.30;1.47;;;13.30;84.70;;;;;;5372924;26;20459;-42
2024/04/16 00:58:37;;;;;;;2.90;1.60;;;13.30;84.00;;;;;;5331899;26;20513;-42
2024/04/16 01:01:03;;;;;;;6.70;1.53;;;13.30;84.00;;;;;;5330624;26;20452;-43
2024/04/16 01:03:31;;;;;;;2.70;1.23;;;13.30;84.00;;;;;;5350420;26;20449;-42
2024/04/16 01:05:57;;;;;;;2.57;0.80;;;13.20;83.90;;;;;;5388440;26;20464;-42
2024/04/16 01:08:23;;;;;;;1.73;1.00;;;13.30;84.10;;;;;;5380842;26;20454;-42
2024/04/16 01:10:50;;;;;;;1.27;0.90;;;13.20;84.00;;;;;;5380208;26;20512;-42
2024/04/16 01:13:16;;;;;;;2.27;1.10;;;13.20;84.10;;;;;;5349927;26;20499;-42
2024/04/16 01:15:42;;;;;;;1.90;0.97;;;13.20;84.10;;;;;;5362446;26;20449;-42
2024/04/16 01:18:08;;;;;;;2.60;1.03;;;13.20;84.10;;;;;;5337846;26;21541;-42
2024/04/16 01:20:38;;;;;;;2.20;1.20;;;13.20;84.20;;;;;;5342827;26;20464;-42
2024/04/16 01:23:04;;;;;;;5.23;1.20;;;13.20;85.00;;;;;;5308451;26;20551;-42
2024/04/16 01:25:34;;;;;;;4.83;1.37;;;13.20;84.10;;;;;;5343599;26;20853;-42
2024/04/16 01:28:00;;;;;;;2.93;1.60;;;13.20;84.10;;;;;;5345388;26;20528;-41
2024/04/16 01:30:26;;;;;;;3.40;1.00;;;13.20;84.00;;;;;;5352428;26;20542;-43
2024/04/16 01:32:52;;;;;;;2.80;1.10;;;13.10;83.90;;;;;;5354289;26;20459;-42
2024/04/16 01:35:21;;;;;;;1.10;0.80;;;13.10;83.90;;;;;;5345484;21;20550;-39
2024/04/16 01:37:47;;;;;;;1.77;1.10;;;13.10;83.80;;;;;;5330532;26;20534;-38
2024/04/16 01:40:20;;;;;;;1.77;1.00;;;13.10;83.90;;;;;;5379059;26;20551;-38
2024/04/16 01:42:46;;;;;;;1.97;0.80;;;13.10;83.90;;;;;;5375615;26;20468;-35
2024/04/16 01:45:12;;;;;;;2.10;0.90;;;13.10;83.90;;;;;;5301905;26;20858;-38
2024/04/16 01:47:40;;;;;;;2.50;0.90;;;13.10;84.00;;;;;;5332206;26;20598;-39
2024/04/16 01:50:06;;;;;;;2.33;0.90;;;13.10;84.00;;;;;;5374387;26;20483;-40
2024/04/16 01:52:32;;;;;;;2.00;0.90;;;13.10;84.10;;;;;;5331944;26;20239;-36
2024/04/16 01:54:58;;;;;;;1.90;1.00;;;13.10;84.10;;;;;;5363269;26;20478;-37
2024/04/16 01:57:24;;;;;;;4.67;1.50;;;13.10;84.20;;;;;;5344221;26;20575;-38
2024/04/16 01:59:50;;;;;;;0.90;0.80;;;13.10;84.10;;;;;;5323080;26;20526;-37
2024/04/16 02:02:20;;;;;;;3.20;1.23;;;13.00;84.00;;;;;;5324765;26;20453;-39
2024/04/16 02:04:46;;;;;;;3.90;1.30;;;13.00;84.00;;;;;;5323725;26;20468;-36
2024/04/16 02:07:12;;;;;;;1.87;1.00;;;13.00;84.00;;;;;;5359061;26;20472;-37
2024/04/16 02:09:40;;;;;;;2.30;1.33;;;13.00;84.00;;;;;;5367779;26;21146;-40
2024/04/16 02:12:09;;;;;;;2.20;1.17;;;13.00;84.10;;;;;;5358983;26;20567;-37
2024/04/16 02:14:34;;;;;;;3.33;1.10;;;13.00;84.00;;;;;;5303133;26;20571;-37
2024/04/16 02:17:03;;;;;;;2.30;1.53;;;13.00;83.90;;;;;;5292750;26;21096;-39
2024/04/16 02:19:31;;;;;;;1.63;1.10;;;12.90;83.80;;;;;;5380772;26;20478;-39
2024/04/16 02:21:57;;;;;;;1.17;0.80;;;13.00;84.10;;;;;;5363289;26;20460;-39
2024/04/16 02:24:26;;;;;;;1.90;1.13;;;12.90;83.90;;;;;;5344876;26;20465;-38
2024/04/16 02:26:52;;;;;;;3.00;1.10;;;12.90;83.90;;;;;;5362576;26;20866;-40
2024/04/16 02:29:21;;;;;;;3.57;1.63;;;12.90;83.90;;;;;;5331346;26;20481;-38
2024/04/16 02:31:49;;;;;;;3.80;1.17;;;12.90;83.80;;;;;;5332723;26;20458;-37
2024/04/16 02:34:16;;;;;;;2.23;1.10;;;12.90;83.80;;;;;;5368651;26;20593;-39
2024/04/16 02:36:42;;;;;;;6.67;1.33;;;12.90;83.80;;;;;;5351029;26;20981;-38
2024/04/16 02:39:08;;;;;;;3.67;1.40;;;12.90;83.80;;;;;;5363572;26;20517;-38
2024/04/16 02:41:34;;;;;;;2.20;1.30;;;12.90;84.60;;;;;;5356480;26;20967;-36
2024/04/16 02:44:00;;;;;;;4.90;1.27;;;12.80;83.60;;;;;;5375959;26;20467;-40
2024/04/16 02:46:29;;;;;;;3.33;1.07;;;12.80;83.60;;;;;;5381308;26;20518;-39
2024/04/16 02:48:55;;;;;;;4.20;1.50;;;12.80;83.60;;;;;;5384782;26;20467;-37
2024/04/16 02:51:21;;;;;;;5.43;1.50;;;12.80;83.60;;;;;;5342284;26;20526;-35
2024/04/16 02:53:47;;;;;;;4.10;1.20;;;12.80;83.60;;;;;;5371431;26;20456;-37
2024/04/16 02:56:16;;;;;;;4.10;1.37;;;12.80;83.60;;;;;;5369033;26;20476;-40
2024/04/16 02:58:44;;;;;;;2.37;1.20;;;12.80;83.60;;;;;;5366357;26;20470;-39
2024/04/16 03:01:10;;;;;;;3.83;1.60;;;12.80;83.80;;;;;;5362842;26;21182;-40
2024/04/16 03:03:37;;;;;;;5.23;1.40;;;12.80;83.90;;;;;;5353820;26;20463;-38
2024/04/16 03:06:03;;;;;;;4.33;1.40;;;12.80;84.10;;;;;;5364393;26;21094;-37
2024/04/16 03:08:32;;;;;;;3.17;1.30;;;12.70;84.10;;;;;;5361640;26;20478;-39
2024/04/16 03:10:59;;;;;;;2.00;1.30;;;12.70;84.20;;;;;;5361914;26;20596;-41
2024/04/16 03:13:25;;;;;;;4.10;1.23;;;12.70;84.40;;;;;;5263399;26;20536;-40
2024/04/16 03:16:05;;;;;;;2.97;1.30;;;12.70;84.60;;;;;;5367149;26;20529;-37
2024/04/16 03:18:35;;;;;;;4.90;1.60;;;12.70;84.60;;;;;;5342848;26;20528;-38
2024/04/16 03:21:01;;;;;;;3.43;1.70;;;12.70;84.80;;;;;;5332695;26;21009;-38
2024/04/16 03:23:27;;;;;;;4.53;2.10;;;12.70;84.90;;;;;;5375761;26;20528;-39
2024/04/16 03:25:53;;;;;;;3.10;1.70;;;12.70;85.10;;;;;;5368918;26;20465;-38
2024/04/16 03:28:19;;;;;;;3.30;1.30;;;12.60;85.00;;;;;;5337428;26;20465;-40
2024/04/16 03:30:48;;;;;;;2.47;1.10;;;12.60;85.10;;;;;;5371498;26;20272;-38
2024/04/16 03:33:13;;;;;;;3.03;1.67;;;12.60;85.20;;;;;;5378575;26;20472;-36
2024/04/16 03:35:39;;;;;;;2.30;1.40;;;12.60;85.20;;;;;;5366176;26;20478;-38
2024/04/16 03:38:12;;;;;;;2.90;1.03;;;12.60;85.20;;;;;;5398095;26;20463;-39
2024/04/16 03:40:40;;;;;;;6.53;1.40;;;12.60;85.30;;;;;;5343608;26;20541;-39
2024/04/16 03:43:07;;;;;;;4.13;1.30;;;12.60;85.40;;;;;;5372768;26;20461;-39
2024/04/16 03:45:33;;;;;;;2.23;1.50;;;12.60;85.40;;;;;;5372786;26;20476;-40
2024/04/16 03:48:00;;;;;;;2.33;1.17;;;12.50;85.30;;;;;;5331388;26;20467;-38
2024/04/16 03:50:26;;;;;;;3.00;1.30;;;12.50;85.40;;;;;;5362770;26;21090;-38
2024/04/16 03:52:52;;;;;;;2.67;1.40;;;12.50;85.40;;;;;;5305691;26;20523;-38
2024/04/16 03:55:20;;;;;;;2.40;1.20;;;12.50;85.60;;;;;;5344160;26;21298;-38
2024/04/16 03:57:46;;;;;;;5.00;1.70;;;12.50;85.70;;;;;;5346753;26;20467;-38
2024/04/16 04:02:58;;;;;;;3.40;1.30;;;12.50;85.70;;;;;;5374168;26;20456;-35
2024/04/16 04:05:30;;;;;;;2.40;1.10;;;12.50;85.70;;;;;;5351589;26;20520;-40
2024/04/16 04:07:58;;;;;;;7.50;1.43;;;12.50;85.80;;;;;;5339846;26;20715;-39
2024/04/16 04:10:25;;;;;;;4.17;1.77;;;12.50;85.90;;;;;;5367967;26;20496;-38
2024/04/16 04:12:51;;;;;;;3.53;1.30;;;12.50;85.90;;;;;;5380111;26;20527;-40
2024/04/16 04:15:20;;;;;;;4.10;1.43;;;12.40;85.80;;;;;;5365441;26;20477;-39
2024/04/16 04:17:46;;;;;;;3.17;1.97;;;12.40;85.80;;;;;;5330921;26;20576;-36
2024/04/16 04:20:14;;;;;;;3.90;1.43;;;12.40;85.80;;;;;;5364876;26;21124;-37
2024/04/16 04:22:45;;;;;;;3.23;1.70;;;12.40;85.90;;;;;;5375193;26;20794;-39
2024/04/16 04:25:11;;;;;;;2.30;1.37;;;12.40;85.90;;;;;;5336010;26;20480;-36
2024/04/16 04:27:42;;;;;;;1.83;1.30;;;12.40;86.00;;;;;;5363191;26;20927;-38
2024/04/16 04:30:09;;;;;;;3.87;1.20;;;12.40;86.10;;;;;;5310651;26;20459;-40
2024/04/16 04:32:35;;;;;;;2.47;1.73;;;12.40;86.20;;;;;;5369276;26;20453;-41
2024/04/16 04:35:02;;;;;;;3.50;1.50;;;12.40;86.30;;;;;;5386985;26;20467;-40
2024/04/16 04:37:30;;;;;;;5.27;1.43;;;12.40;86.30;;;;;;5361001;26;20468;-38
2024/04/16 04:39:58;;;;;;;1.50;1.10;;;12.40;86.40;;;;;;5381369;26;20471;-38
2024/04/16 04:42:26;;;;;;;3.27;1.30;;;12.30;86.20;;;;;;5369938;26;20472;-37
2024/04/16 04:44:52;;;;;;;3.23;1.20;;;12.40;86.50;;;;;;5355677;26;20468;-40
2024/04/16 04:47:20;;;;;;;2.50;1.63;;;12.40;86.60;;;;;;5353326;26;21050;-36
2024/04/16 04:49:47;;;;;;;2.97;1.60;;;12.30;86.50;;;;;;5359890;26;21444;-39
2024/04/16 04:52:13;;;;;;;3.03;1.30;;;12.30;86.50;;;;;;5363472;26;20648;-40
2024/04/16 04:54:39;;;;;;;2.93;1.50;;;12.30;86.60;;;;;;5372149;26;20461;-39
2024/04/16 04:57:06;;;;;;;2.07;1.33;;;12.30;86.70;;;;;;5308893;26;20454;-40
2024/04/16 04:59:32;;;;;;;1.80;1.40;;;12.30;86.80;;;;;;5356819;26;20603;-39
2024/04/16 05:02:01;;;;;;;4.40;1.73;;;12.30;86.90;;;;;;5374460;26;20589;-40
2024/04/16 05:04:30;;;;;;;3.83;1.27;;;12.30;86.90;;;;;;5342608;26;20983;-40
2024/04/16 05:06:56;;;;;;;1.60;1.30;;;12.30;86.90;;;;;;5373382;26;21096;-38
2024/04/16 05:09:22;;;;;;;2.57;1.17;;;12.30;86.90;;;;;;5324370;26;20453;-38
2024/04/16 05:11:49;;;;;;;3.80;1.20;;;12.30;87.00;;;;;;5340580;26;20533;-38
2024/04/16 05:14:15;;;;;;;2.87;1.30;;;12.30;87.10;;;;;;5332758;26;20507;-37
2024/04/16 05:16:43;;;;;;;2.57;1.60;;;12.30;87.10;;;;;;5334923;26;20467;-36
2024/04/16 05:19:09;;;;;;;2.73;1.50;;;12.30;87.20;;;;;;5372431;26;20457;-38
2024/04/16 05:21:37;;;;;;;3.60;1.30;;;12.30;87.20;;;;;;5366087;26;20527;-36
2024/04/16 05:24:03;;;;;;;3.50;1.50;;;12.20;87.10;;;;;;5334942;26;20584;-40
2024/04/16 05:26:32;;;;;;;4.03;1.53;;;12.20;87.10;;;;;;5350018;26;20995;-41
2024/04/16 05:29:00;;;;;;;2.50;1.40;;;12.20;87.30;;;;;;5326504;26;20477;-39
2024/04/16 05:31:29;;;;;;;2.00;1.20;;;12.20;87.30;;;;;;5340687;26;21030;-39
2024/04/16 05:33:55;;;;;;;3.10;1.43;;;12.20;87.30;;;;;;5319417;26;20534;-35
2024/04/16 05:36:21;;;;;;;5.70;1.40;;;12.20;87.30;;;;;;5282771;26;20475;-38
2024/04/16 05:38:49;;;;;;;3.20;1.47;;;12.20;88.20;;;;;;5364678;26;20495;-40
2024/04/16 05:41:16;;;;;;;3.57;1.63;;;12.20;87.50;;;;;;5363987;26;21351;-38
2024/04/16 05:43:42;;;;;;;2.60;1.20;;;12.20;87.60;;;;;;5366239;26;20556;-41
2024/04/16 05:46:13;;;;;;;2.60;1.40;;;12.20;87.70;;;;;;5353250;26;20451;-35
2024/04/16 05:48:40;;;;;;;1.70;1.40;;;12.20;87.70;;;;;;5306456;26;20539;-37
2024/04/16 05:51:06;;;;;;;3.63;1.80;;;12.20;87.70;;;;;;5338140;26;20466;-38
2024/04/16 05:53:32;;;;;;;2.87;1.77;;;12.20;87.80;;;;;;5362088;26;20532;-39
2024/04/16 05:55:58;;;;;;;4.03;1.80;;;12.20;87.80;;;;;;5377867;26;20539;-39
2024/04/16 05:58:27;;;;;;;3.27;2.00;;;12.10;87.80;;;;;;5367220;26;20464;-37
2024/04/16 06:00:53;;;;;;;4.80;2.03;;;12.10;87.80;;;;;;5359186;26;21191;-36
2024/04/16 06:03:21;;;;;;;5.07;1.77;;;12.20;87.90;;;;;;5331978;26;20507;-38
2024/04/16 06:05:48;;;;;;;4.30;1.83;;;12.10;87.80;;;;;;5344714;26;20464;-39
2024/04/16 06:08:16;;;;;;;4.53;1.93;;;12.10;87.90;;;;;;5337088;26;20548;-37
2024/04/16 06:10:42;;;;;;;2.07;1.30;;;12.10;87.90;;;;;;5354972;26;20470;-39
2024/04/16 06:13:08;;;;;;;7.70;1.70;;;12.10;88.00;;;;;;5370114;26;20464;-41
2024/04/16 06:15:34;;;;;;;5.97;1.50;;;12.10;88.10;;;;;;5303817;26;20539;-39
2024/04/16 06:18:08;;;;;;;2.20;1.60;;;12.10;88.10;;;;;;5319560;26;20541;-40
2024/04/16 06:20:34;;;;;;;2.07;1.50;;;12.10;88.30;;;;;;5298203;26;21228;-39
2024/04/16 06:23:00;;;;;;;3.70;1.80;;;12.10;88.40;;;;;;5383219;26;20451;-40
2024/04/16 06:25:26;;;;;;;2.90;1.50;;;12.10;88.50;;;;;;5370915;26;20608;-40
2024/04/16 06:27:57;;;;;;;2.43;1.50;;;12.10;88.60;;;;;;5344130;26;20591;-36
2024/04/16 06:30:26;;;;;;;3.97;1.30;;;12.00;88.60;;;;;;5333363;26;20901;-40
2024/04/16 06:32:54;;;;;;;2.87;1.70;;;12.00;88.80;;;;;;5331220;26;20509;-39
2024/04/16 06:35:20;;;;;;;2.60;1.90;;;12.00;89.00;;;;;;5363680;26;20508;-40
2024/04/16 06:37:46;;;;;;;2.30;1.30;;;12.00;89.10;;;;;;5375893;26;20477;-36
2024/04/16 06:40:12;;;;;;;3.63;1.47;;;12.00;89.20;;;;;;5348247;26;20597;-37
2024/04/16 06:42:41;;;;;;;1.80;1.30;;;12.10;89.50;;;;;;5372159;26;21837;-39
2024/04/16 06:45:07;;;;;;;3.30;1.27;;;12.00;89.50;;;;;;5352820;26;20622;-40
2024/04/16 06:47:33;;;;;;;3.83;1.23;;;12.00;89.70;;;;;;5363583;26;20463;-36
2024/04/16 06:50:03;;;;;;;3.53;1.60;;;12.00;89.70;;;;;;5287225;26;21646;-41
2024/04/16 06:52:31;;;;;;;2.97;1.83;;;12.00;90.00;;;;;;5344913;26;20588;-40
2024/04/16 06:54:58;;;;;;;3.37;1.50;;;12.00;90.00;;;;;;5307895;26;20512;-39
2024/04/16 06:57:25;;;;;;;4.20;1.60;;;12.00;90.10;;;;;;5312071;26;20569;-35
2024/04/16 06:59:51;;;;;;;1.40;1.30;;;12.00;90.20;;;;;;5329325;26;20465;-38
2024/04/16 07:02:18;;;;;;;1.40;1.20;;;11.90;90.20;;;;;;5344498;26;21016;-37
2024/04/16 07:04:44;;;;;;;1.53;1.00;;;11.90;90.30;;;;;;5337419;26;20865;-35
2024/04/16 07:07:10;;;;;;;4.20;1.20;;;11.90;90.40;;;;;;5360275;26;20548;-38
2024/04/16 07:09:36;;;;;;;4.10;1.50;;;11.90;90.40;;;;;;5346602;26;20483;-37
2024/04/16 07:12:02;;;;;;;3.00;1.20;;;11.90;90.50;;;;;;5370416;26;21237;-38
2024/04/16 07:14:28;;;;;;;4.03;1.27;;;11.90;90.50;;;;;;5277879;26;20598;-37
2024/04/16 07:16:54;;;;;;;1.47;1.10;;;11.90;90.50;;;;;;5350150;26;20536;-38
2024/04/16 07:19:20;;;;;;;2.53;1.40;;;11.90;90.60;;;;;;5371687;26;20478;-38
2024/04/16 07:21:46;;;;;;;1.47;0.90;;;11.90;90.60;;;;;;5358700;26;21225;-41
2024/04/16 07:24:12;;;;;;;2.23;1.10;;;11.90;90.60;;;;;;5333936;26;21044;-40
2024/04/16 07:26:39;;;;;;;0.97;0.87;;;11.90;90.80;;;;;;5305859;26;20472;-35
2024/04/16 07:29:07;;;;;;;4.00;0.90;;;11.90;90.80;;;;;;5318013;26;20700;-40
2024/04/16 07:31:35;;;;;;;0.90;0.80;;;11.80;90.80;;;;;;5320474;26;20532;-41
2024/04/16 07:34:01;;;;;;;1.43;1.33;;;11.80;90.80;;;;;;5338215;26;20452;-40
2024/04/16 07:36:32;;;;;;;2.73;1.20;;;11.80;90.90;;;;;;5332501;26;20515;-37
2024/04/16 07:38:58;;;;;;;2.20;0.90;;;11.80;90.90;;;;;;5336345;26;20546;-40
2024/04/16 07:41:29;;;;;;;2.40;1.10;;;11.80;91.00;;;;;;5336162;26;20468;-38
2024/04/16 07:43:55;;;;;;;1.50;1.00;;;11.80;91.10;;;;;;5364734;26;20515;-40
2024/04/16 07:46:21;;;;;;;1.27;0.87;;;11.80;91.20;;;;;;5377322;26;20513;-38
2024/04/16 07:48:47;;;;;;;1.40;1.13;;;11.80;91.30;;;;;;5365609;26;20460;-40
2024/04/16 07:51:13;;;;;;;2.80;1.13;;;11.80;91.40;;;;;;5367613;26;20944;-39
2024/04/16 07:53:44;;;;;;;2.60;1.10;;;11.80;91.50;;;;;;5380025;26;20467;-38
2024/04/16 07:56:12;;;;;;;2.20;1.03;;;11.80;91.70;;;;;;5385582;26;20594;-40
2024/04/16 07:58:40;;;;;;;2.70;1.20;;;11.80;91.70;;;;;;5384212;26;21017;-41
2024/04/16 08:01:06;;;;;;;1.67;1.10;;;11.80;91.80;;;;;;5365548;26;20524;-38
2024/04/16 08:03:32;;;;;;;2.53;1.13;;;11.70;91.80;;;;;;5372979;26;20894;-36
2024/04/16 08:06:00;;;;;;;1.43;1.00;;;11.70;91.90;;;;;;5326991;26;20472;-37
2024/04/16 08:08:27;;;;;;;2.50;1.30;;;11.80;91.90;;;;;;5335286;26;20872;-38
2024/04/16 08:10:54;;;;;;;1.63;1.10;;;11.80;92.00;;;;;;5333357;26;20800;-40
2024/04/16 08:13:20;;;;;;;2.37;1.53;;;11.80;92.10;;;;;;5328847;26;20579;-40
2024/04/16 08:15:53;;;;;;;7.50;1.40;;;11.80;92.10;;;;;;5334903;26;20965;-40
2024/04/16 08:18:19;;;;;;;1.87;1.13;;;11.80;92.10;;;;;;5364658;26;20930;-37
2024/04/16 08:20:45;;;;;;;2.27;1.37;;;11.80;92.20;;;;;;5349342;26;20507;-40
2024/04/16 08:23:11;;;;;;;4.27;1.67;;;11.80;92.20;;;;;;5364552;26;20572;-40
2024/04/16 08:25:37;;;;;;;1.27;1.13;;;11.80;92.30;;;;;;5369700;26;20943;-39
2024/04/16 08:28:03;;;;;;;3.83;1.60;;;11.80;92.40;;;;;;5330617;26;20598;-40
2024/04/16 08:30:29;;;;;;;3.97;1.30;;;11.80;92.50;;;;;;5344079;26;21432;-37
2024/04/16 08:33:00;;;;;;;3.00;1.60;;;11.80;92.60;;;;;;5379238;26;20460;-38
2024/04/16 08:35:28;;;;;;;2.60;1.87;;;11.80;92.60;;;;;;5385104;26;21207;-38
2024/04/16 08:37:54;;;;;;;4.83;1.93;;;11.80;92.70;;;;;;5346663;26;21059;-40
2024/04/16 08:40:23;;;;;;;2.80;1.40;;;11.80;92.80;;;;;;5340525;26;20563;-39
2024/04/16 08:42:54;;;;;;;4.10;1.60;;;11.80;92.90;;;;;;5334921;26;20584;-38
2024/04/16 08:45:22;;;;;;;2.60;1.33;;;11.80;92.90;;;;;;5366696;26;20472;-38
2024/04/16 08:47:51;;;;;;;3.33;1.70;;;11.80;93.00;;;;;;5305062;26;20502;-39
2024/04/16 08:50:19;;;;;;;4.17;1.43;;;11.80;93.00;;;;;;5333890;26;20467;-37
2024/04/16 08:52:46;;;;;;;4.23;1.70;;;11.80;93.10;;;;;;5327121;26;20531;-36
2024/04/16 08:55:13;;;;;;;3.30;1.60;;;11.80;93.10;;;;;;5375488;26;20515;-40
2024/04/16 08:57:43;;;;;;;3.40;1.67;;;11.80;93.20;;;;;;5359937;26;20477;-37
2024/04/16 09:00:09;;;;;;;3.77;1.90;;;11.80;93.20;;;;;;5375781;26;20994;-40
2024/04/16 09:02:38;;;;;;;2.90;1.70;;;11.80;93.30;;;;;;5334253;26;20502;-40
2024/04/16 09:05:08;;;;;;;3.00;1.50;;;11.80;93.40;;;;;;5308592;26;20517;-38
2024/04/16 09:07:39;;;;;;;5.90;1.90;;;11.80;93.40;;;;;;5359217;26;20488;-40
2024/04/16 09:10:15;;;;;;;4.67;1.60;;;11.80;93.50;;;;;;5364611;26;20535;-38
2024/04/16 09:12:47;;;;;;;4.10;1.30;;;11.80;93.50;;;;;;5366406;26;20460;-39
2024/04/16 09:15:15;;;;;;;3.23;1.67;;;11.80;93.50;;;;;;5339389;26;21660;-39
2024/04/16 09:17:52;;;;;;;3.83;1.40;;;11.80;93.60;;;;;;5308407;26;20528;-38
2024/04/16 09:20:19;;;;;;;3.30;1.43;;;11.80;93.60;;;;;;5346829;26;20477;-39
2024/04/16 09:22:50;;;;;;;4.30;1.40;;;11.80;93.70;;;;;;5323782;26;21003;-39
2024/04/16 09:25:17;;;;;;;3.43;1.47;;;11.80;93.70;;;;;;5368752;26;20553;-38
2024/04/16 09:27:48;;;;;;;3.10;1.50;;;11.80;93.80;;;;;;5378512;26;20674;-39
2024/04/16 09:30:14;;;;;;;2.20;1.23;;;11.80;93.80;;;;;;5338162;26;20484;-39
2024/04/16 09:32:42;;;;;;;2.37;1.33;;;11.80;93.90;;;;;;5337596;26;20590;-37
2024/04/16 09:35:11;;;;;;;4.23;1.50;;;11.80;93.90;;;;;;5377178;26;20488;-38
2024/04/16 09:37:37;;;;;;;3.50;1.20;;;11.90;94.10;;;;;;5336579;26;20497;-38
2024/04/16 09:40:06;;;;;;;3.57;1.70;;;11.90;94.10;;;;;;5387155;26;21180;-38
2024/04/16 09:42:36;;;;;;;3.67;1.60;;;11.90;94.10;;;;;;5328965;26;20458;-39
2024/04/16 09:45:06;;;;;;;3.13;1.80;;;11.90;94.20;;;;;;5362550;26;20480;-36
2024/04/16 09:47:35;;;;;;;4.10;1.30;;;11.90;94.30;;;;;;5306184;26;20468;-35
2024/04/16 09:50:05;;;;;;;2.73;1.37;;;11.90;94.30;;;;;;5374120;26;20469;-40
2024/04/16 09:52:36;;;;;;;4.23;1.37;;;11.90;94.30;;;;;;5364602;26;20469;-36
2024/04/16 09:55:04;;;;;;;5.83;1.30;;;11.90;94.40;;;;;;5335067;26;20516;-37
2024/04/16 09:57:32;;;;;;;2.50;1.23;;;11.90;94.30;;;;;;5369142;26;20480;-39
2024/04/16 10:00:03;;;;;;;2.47;1.37;;;11.90;94.40;;;;;;5369241;26;20460;-38
2024/04/16 10:02:33;;;;;;;5.27;1.80;;;11.90;94.40;;;;;;5352344;26;20509;-38
2024/04/16 10:05:01;;;;;;;3.10;1.60;;;11.90;94.50;;;;;;5386623;26;20461;-40
2024/04/16 10:07:30;;;;;;;4.37;1.47;;;11.90;94.60;;;;;;5368463;26;20458;-40
2024/04/16 10:09:59;;;;;;;4.00;1.50;;;11.90;94.60;;;;;;5368342;26;21074;-40
2024/04/16 10:12:28;;;;;;;3.90;1.63;;;11.90;94.70;;;;;;5336029;26;20965;-39
2024/04/16 10:14:56;;;;;;;4.03;1.53;;;11.90;94.90;;;;;;5316905;26;20468;-37
2024/04/16 10:17:25;;;;;;;3.37;1.83;;;11.90;95.00;;;;;;5335215;26;20468;-37
2024/04/16 10:19:54;;;;;;;4.50;1.83;;;11.90;95.20;;;;;;5328940;26;20480;-37
2024/04/16 10:22:20;;;;;;;6.47;2.37;;;12.00;95.40;;;;;;5316341;26;20516;-39
2024/04/16 10:24:57;;;;;;;1.83;1.30;;;12.00;95.50;;;;;;5337219;26;20773;-39
2024/04/16 10:27:25;;;;;;;3.03;1.53;;;12.00;95.70;;;;;;5318972;26;20484;-39
2024/04/16 10:30:16;;;;;;;3.67;1.57;;;12.00;95.90;;;;;;5335782;26;20531;-38
2024/04/16 10:33:01;;;;;;;2.73;1.50;;;12.00;95.90;;;;;;5359064;26;20468;-37
2024/04/16 10:35:28;;;;;;;4.00;1.27;;;12.00;96.00;;;;;;5358952;26;20519;-41
2024/04/16 10:37:56;;;;;;;3.10;1.30;;;12.00;96.20;;;;;;5348578;26;20510;-40
2024/04/16 10:40:27;;;;;;;2.17;1.67;;;12.00;96.30;;;;;;5357489;26;20543;-39
2024/04/16 10:42:55;;;;;;;1.70;1.27;;;12.00;96.40;;;;;;5364486;26;20460;-38
2024/04/16 10:45:22;;;;;;;3.10;1.50;;;12.10;96.60;;;;;;5349010;26;20455;-39
2024/04/16 10:47:53;;;;;;;1.83;1.50;;;12.10;96.70;;;;;;5366180;26;20467;-40
2024/04/16 10:50:19;;;;;;;5.40;1.80;;;12.10;96.70;;;;;;5360377;26;20515;-37
2024/04/16 10:52:46;;;;;;;2.40;1.40;;;12.10;96.80;;;;;;5336358;26;20518;-39
2024/04/16 10:55:12;;;;;;;5.90;1.80;;;12.20;97.10;;;;;;5332976;26;20565;-39
2024/04/16 10:57:41;;;;;;;2.17;1.57;;;12.20;97.20;;;;;;5331431;26;20457;-40
2024/04/16 11:00:09;;;;;;;2.60;1.73;;;12.20;97.10;;;;;;5366472;26;21169;-40
2024/04/16 11:02:35;;;;;;;3.50;1.80;;;12.20;97.10;;;;;;5360070;26;20457;-39
2024/04/16 11:05:05;;;;;;;3.20;1.97;;;12.20;97.10;;;;;;5359309;26;20480;-39
2024/04/16 11:07:33;;;;;;;2.30;1.40;;;12.20;97.30;;;;;;5328339;26;20529;-38
2024/04/16 11:09:59;;;;;;;3.90;1.80;;;12.30;97.40;;;;;;5328658;26;20578;-35
2024/04/16 11:12:27;;;;;;;4.87;1.70;;;12.30;97.40;;;;;;5359998;26;20457;-40
2024/04/16 11:14:57;;;;;;;5.20;1.60;;;12.30;97.30;;;;;;5330130;26;20520;-40
2024/04/16 11:17:27;;;;;;;1.87;1.67;;;12.40;97.20;;;;;;5336500;26;20528;-37
2024/04/16 11:19:53;;;;;;;3.27;1.53;;;12.40;97.00;;;;;;5380325;26;20461;-40
2024/04/16 11:22:22;;;;;;;3.43;1.77;;;12.40;97.00;;;;;;5325815;26;20592;-39
2024/04/16 11:24:49;;;;;;;2.33;1.73;;;12.50;97.00;;;;;;5334221;26;20509;-39
2024/04/16 11:27:22;;;;;;;3.30;1.50;;;12.50;97.10;;;;;;5359591;26;20476;-35
2024/04/16 11:29:49;;;;;;;2.43;1.67;;;12.50;97.00;;;;;;5300153;26;20980;-40
2024/04/16 11:32:19;;;;;;;4.80;1.30;;;12.50;96.90;;;;;;5338843;26;20503;-41
2024/04/16 11:34:46;;;;;;;2.50;1.63;;;12.60;96.80;;;;;;5327842;26;20489;-36
2024/04/16 11:37:18;;;;;;;2.43;1.60;;;12.60;96.60;;;;;;5368391;26;20827;-40
2024/04/16 11:39:50;;;;;;;3.13;1.90;;;12.60;96.60;;;;;;5329641;26;20614;-38
2024/04/16 11:42:17;;;;;;;2.27;1.53;;;12.60;96.60;;;;;;5362683;26;20578;-40
2024/04/16 11:44:46;;;;;;;5.10;1.97;;;12.60;96.70;;;;;;5341583;26;20524;-38
2024/04/16 11:47:12;;;;;;;3.00;1.60;;;12.60;96.70;;;;;;5378359;26;20464;-38
2024/04/16 11:49:38;;;;;;;2.63;1.17;;;12.60;96.70;;;;;;5349954;26;20480;-39
2024/04/16 11:52:05;;;;;;;3.07;1.90;;;12.60;96.60;;;;;;5344967;26;20504;-38
2024/04/16 11:54:36;;;;;;;4.53;1.67;;;12.70;96.60;;;;;;5376323;26;20524;-37
2024/04/16 11:57:05;;;;;;;3.00;1.77;;;12.70;96.70;;;;;;5375493;26;20548;-38
2024/04/16 11:59:32;;;;;;;3.57;1.30;;;12.70;96.90;;;;;;5326567;26;20612;-39
2024/04/16 12:01:58;;;;;;;4.10;1.77;;;12.70;96.80;;;;;;5341190;26;20550;-37
2024/04/16 12:04:24;;;;;;;5.37;2.07;;;12.70;96.80;;;;;;5299487;26;20496;-40
2024/04/16 12:06:50;;;;;;;3.93;1.63;;;12.70;96.80;;;;;;5365196;26;20996;-34
2024/04/16 12:09:16;;;;;;;3.00;1.70;;;12.80;96.90;;;;;;5341445;26;20486;-39
2024/04/16 12:11:43;;;;;;;4.07;2.23;;;12.80;96.80;;;;;;5307409;26;20569;-36
2024/04/16 12:14:10;;;;;;;3.47;2.17;;;12.80;96.70;;;;;;5366766;26;20551;-38
2024/04/16 12:16:38;;;;;;;3.67;1.90;;;12.80;96.60;;;;;;5370236;26;20554;-36
2024/04/16 12:19:08;;;;;;;3.30;2.07;;;12.90;96.50;;;;;;5366079;26;20547;-37
2024/04/16 12:21:36;;;;;;;3.87;2.53;;;12.90;96.30;;;;;;5307516;26;20484;-36
2024/04/16 12:24:05;;;;;;;8.10;2.50;;;12.90;96.20;;;;;;5339342;26;20516;-36
2024/04/16 12:26:32;;;;;;;3.63;2.10;;;12.90;96.40;;;;;;5309256;26;20454;-36
2024/04/16 12:29:00;;;;;;;2.83;1.70;;;12.90;96.40;;;;;;5376159;26;20517;-39
2024/04/16 12:31:26;;;;;;;5.00;2.17;;;12.90;96.20;;;;;;5359830;26;20552;-37
2024/04/16 12:33:53;;;;;;;3.73;1.80;;;13.00;96.20;;;;;;5365537;26;20525;-39
2024/04/16 12:36:21;;;;;;;3.07;1.70;;;13.00;96.00;;;;;;5323375;26;20449;-39
2024/04/16 12:38:47;;;;;;;4.17;2.20;;;13.00;95.90;;;;;;5329216;26;20522;-40
2024/04/16 12:41:13;;;;;;;5.37;1.80;;;13.00;95.90;;;;;;5330112;26;21992;-40
2024/04/16 12:43:39;;;;;;;2.37;1.63;;;13.00;95.80;;;;;;5393607;26;20461;-36
2024/04/16 12:46:07;;;;;;;2.33;1.90;;;13.10;95.80;;;;;;5380359;26;20289;-38
2024/04/16 12:48:35;;;;;;;3.50;2.00;;;13.00;95.60;;;;;;5336250;26;20479;-36
2024/04/16 12:51:01;;;;;;;3.20;2.03;;;13.10;95.60;;;;;;5313753;26;20478;-38
2024/04/16 12:53:27;;;;;;;2.83;1.53;;;13.10;95.60;;;;;;5366139;26;20579;-40